createdAt,value
2018-07-30T00:02:18.922Z,3.50
2018-07-30T00:04:45.664Z,3.67
2018-07-30T00:07:12.296Z,3.60
2018-07-30T00:09:38.930Z,3.60
2018-07-30T00:12:05.674Z,3.50
2018-07-30T00:14:32.329Z,3.50
2018-07-30T00:16:58.983Z,3.40
2018-07-30T00:19:25.630Z,3.60
2018-07-30T00:21:52.284Z,3.90
2018-07-30T00:24:18.918Z,3.47
2018-07-30T00:26:45.604Z,3.63
2018-07-30T00:29:12.264Z,3.97
2018-07-30T00:31:38.890Z,4.00
2018-07-30T00:34:05.550Z,3.80
2018-07-30T00:36:32.224Z,3.90
2018-07-30T00:38:58.901Z,3.80
2018-07-30T00:41:25.553Z,3.30
2018-07-30T00:43:52.176Z,4.17
2018-07-30T00:46:18.819Z,3.97
2018-07-30T00:48:45.501Z,3.97
2018-07-30T00:51:12.147Z,3.80
2018-07-30T00:53:38.792Z,3.87
2018-07-30T00:56:05.469Z,3.67
2018-07-30T00:58:32.117Z,4.10
2018-07-30T01:00:58.807Z,3.70
2018-07-30T01:03:25.443Z,3.60
2018-07-30T01:05:52.099Z,3.73
2018-07-30T01:08:18.809Z,3.93
2018-07-30T01:10:45.447Z,4.07
2018-07-30T01:13:12.114Z,3.63
2018-07-30T01:15:38.757Z,3.70
2018-07-30T01:18:05.405Z,3.87
2018-07-30T01:20:32.209Z,4.03
2018-07-30T01:22:58.923Z,4.00
2018-07-30T01:25:25.556Z,3.77
2018-07-30T01:27:52.333Z,3.90
2018-07-30T01:30:18.989Z,3.93
2018-07-30T01:32:45.632Z,3.90
2018-07-30T01:35:12.250Z,3.97
2018-07-30T01:37:38.913Z,3.83
2018-07-30T01:40:05.667Z,3.90
2018-07-30T01:42:32.300Z,3.70
2018-07-30T01:44:58.936Z,3.70
2018-07-30T01:47:25.567Z,3.70
2018-07-30T01:49:52.209Z,3.80
2018-07-30T01:52:18.824Z,3.80
2018-07-30T01:54:45.503Z,3.90
2018-07-30T01:57:12.143Z,4.00
2018-07-30T01:59:38.811Z,3.57
2018-07-30T02:02:05.474Z,3.80
2018-07-30T02:04:32.134Z,4.00
2018-07-30T02:06:58.766Z,3.97
2018-07-30T02:09:25.408Z,3.97
2018-07-30T02:11:52.023Z,3.57
2018-07-30T02:14:18.637Z,3.50
2018-07-30T02:16:45.275Z,3.90
2018-07-30T02:19:11.917Z,3.50
2018-07-30T02:21:38.595Z,3.87
2018-07-30T02:24:05.215Z,3.83
2018-07-30T02:26:31.876Z,3.73
2018-07-30T02:28:58.501Z,3.77
2018-07-30T02:31:25.159Z,3.57
2018-07-30T02:33:51.834Z,3.57
2018-07-30T02:36:18.461Z,3.60
2018-07-30T02:38:45.133Z,3.33
2018-07-30T02:41:11.764Z,3.83
2018-07-30T02:43:38.392Z,3.57
2018-07-30T02:46:05.001Z,3.67
2018-07-30T02:48:31.636Z,3.67
2018-07-30T02:50:58.264Z,3.80
2018-07-30T02:53:24.924Z,3.70
2018-07-30T02:55:51.560Z,4.40
2018-07-30T02:58:18.196Z,3.87
2018-07-30T03:00:44.836Z,3.90
2018-07-30T03:03:11.762Z,3.77
2018-07-30T03:05:38.649Z,3.53
2018-07-30T03:08:05.287Z,4.00
2018-07-30T03:10:31.938Z,3.80
2018-07-30T03:12:58.585Z,4.00
2018-07-30T03:15:25.295Z,3.70
2018-07-30T03:17:51.910Z,3.90
2018-07-30T03:20:18.531Z,3.67
2018-07-30T03:22:45.179Z,3.80
2018-07-30T03:25:11.806Z,3.93
2018-07-30T03:27:38.459Z,4.13
2018-07-30T03:30:06.022Z,4.37
2018-07-30T03:32:32.675Z,4.10
2018-07-30T03:34:59.317Z,3.97
2018-07-30T03:37:25.954Z,4.47
2018-07-30T03:39:52.887Z,3.80
2018-07-30T03:42:19.568Z,4.07
2018-07-30T03:44:46.172Z,4.27
2018-07-30T03:47:12.868Z,4.97
2018-07-30T03:49:39.586Z,4.17
2018-07-30T03:52:06.199Z,4.50
2018-07-30T03:54:32.854Z,4.20
2018-07-30T03:56:59.487Z,4.33
2018-07-30T03:59:26.147Z,4.47
2018-07-30T04:01:52.791Z,4.50
2018-07-30T04:04:19.464Z,4.77
2018-07-30T04:06:46.090Z,4.67
2018-07-30T04:09:12.788Z,4.90
2018-07-30T04:11:39.462Z,4.33
2018-07-30T04:14:06.116Z,5.00
2018-07-30T04:16:37.346Z,4.63
2018-07-30T04:19:03.999Z,4.53
2018-07-30T04:21:30.644Z,4.53
2018-07-30T04:23:57.300Z,4.80
2018-07-30T04:26:23.958Z,4.83
2018-07-30T04:28:50.606Z,4.87
2018-07-30T04:31:17.234Z,4.53
2018-07-30T04:33:43.883Z,5.00
2018-07-30T04:36:10.513Z,4.60
2018-07-30T04:38:37.190Z,4.83
2018-07-30T04:41:03.845Z,4.37
2018-07-30T04:43:30.506Z,4.63
2018-07-30T04:45:57.164Z,4.90
2018-07-30T04:48:23.804Z,4.70
2018-07-30T04:50:50.473Z,4.67
2018-07-30T04:53:17.131Z,4.50
2018-07-30T04:55:43.827Z,4.70
2018-07-30T04:58:10.476Z,5.10
2018-07-30T05:00:37.097Z,4.50
2018-07-30T05:03:06.229Z,4.70
2018-07-30T05:05:33.298Z,5.20
2018-07-30T05:07:59.973Z,5.20
2018-07-30T05:10:26.672Z,4.80
2018-07-30T05:12:53.304Z,4.93
2018-07-30T05:15:19.925Z,5.30
2018-07-30T05:17:46.551Z,4.80
2018-07-30T05:20:13.210Z,5.10
2018-07-30T05:22:39.837Z,5.30
2018-07-30T05:25:06.488Z,5.07
2018-07-30T05:27:33.140Z,5.03
2018-07-30T05:29:59.790Z,4.63
2018-07-30T05:32:26.408Z,5.13
2018-07-30T05:34:53.066Z,4.80
2018-07-30T05:37:19.768Z,5.17
2018-07-30T05:39:46.419Z,5.50
2018-07-30T05:42:13.061Z,5.23
2018-07-30T05:44:39.733Z,4.90
2018-07-30T05:47:06.429Z,4.83
2018-07-30T05:49:33.092Z,5.10
2018-07-30T05:51:59.706Z,5.33
2018-07-30T05:54:26.361Z,4.83
2018-07-30T05:56:52.986Z,5.10
2018-07-30T05:59:19.643Z,4.77
2018-07-30T06:01:46.309Z,4.77
2018-07-30T06:04:12.956Z,4.80
2018-07-30T06:06:39.558Z,4.77
2018-07-30T06:09:07.075Z,4.27
2018-07-30T06:11:33.725Z,4.20
2018-07-30T06:14:00.371Z,4.50
2018-07-30T06:16:27.038Z,4.10
2018-07-30T06:18:53.710Z,4.10
2018-07-30T06:21:20.377Z,4.70
2018-07-30T06:23:47.033Z,3.93
2018-07-30T06:26:13.708Z,4.27
2018-07-30T06:28:40.351Z,4.07
2018-07-30T06:31:06.969Z,3.90
2018-07-30T06:33:33.640Z,4.20
2018-07-30T06:36:00.273Z,4.00
2018-07-30T06:38:26.959Z,4.10
2018-07-30T06:40:53.653Z,4.23
2018-07-30T06:43:20.270Z,4.10
2018-07-30T06:45:46.896Z,4.23
2018-07-30T06:48:13.550Z,4.23
2018-07-30T06:50:40.216Z,4.13
2018-07-30T06:53:06.930Z,4.00
2018-07-30T06:55:33.622Z,4.40
2018-07-30T06:58:00.310Z,3.50
2018-07-30T07:00:26.933Z,4.27
2018-07-30T07:02:53.584Z,4.10
2018-07-30T07:05:20.204Z,3.90
2018-07-30T07:07:46.858Z,3.63
2018-07-30T07:10:13.565Z,4.17
2018-07-30T07:12:40.202Z,4.10
2018-07-30T07:15:08.882Z,3.97
2018-07-30T07:17:35.535Z,4.10
2018-07-30T07:20:02.162Z,3.87
2018-07-30T07:22:28.867Z,3.97
2018-07-30T07:24:55.503Z,3.50
2018-07-30T07:27:22.127Z,3.60
2018-07-30T07:29:48.792Z,4.13
2018-07-30T07:32:15.442Z,4.10
2018-07-30T07:34:42.132Z,4.10
2018-07-30T07:37:08.763Z,3.90
2018-07-30T07:39:35.454Z,3.80
2018-07-30T07:42:02.199Z,3.97
2018-07-30T07:44:28.868Z,3.77
2018-07-30T07:46:55.516Z,3.67
2018-07-30T07:49:22.153Z,3.80
2018-07-30T07:51:48.811Z,3.80
2018-07-30T07:54:15.511Z,3.80
2018-07-30T07:56:42.155Z,4.13
2018-07-30T07:59:08.835Z,3.80
2018-07-30T08:01:35.488Z,3.77
2018-07-30T08:04:02.188Z,3.47
2018-07-30T08:06:28.814Z,3.57
2018-07-30T08:08:55.466Z,3.70
2018-07-30T08:11:22.092Z,3.73
2018-07-30T08:13:48.703Z,3.60
2018-07-30T08:16:15.360Z,3.63
2018-07-30T08:18:42.018Z,3.70
2018-07-30T08:21:08.688Z,3.37
2018-07-30T08:23:35.298Z,3.73
2018-07-30T08:26:01.978Z,3.60
2018-07-30T08:28:28.618Z,3.27
2018-07-30T08:30:55.315Z,3.53
2018-07-30T08:33:21.994Z,3.90
2018-07-30T08:35:48.638Z,4.00
2018-07-30T08:38:15.294Z,3.50
2018-07-30T08:40:41.982Z,3.90
2018-07-30T08:43:08.639Z,3.70
2018-07-30T08:45:35.294Z,4.10
2018-07-30T08:48:01.964Z,3.40
2018-07-30T08:50:28.605Z,3.73
2018-07-30T08:52:55.282Z,4.00
2018-07-30T08:55:21.993Z,4.00
2018-07-30T08:57:48.620Z,4.20
2018-07-30T09:00:15.277Z,3.63
2018-07-30T09:02:41.956Z,3.87
2018-07-30T09:05:09.324Z,3.57
2018-07-30T09:07:36.369Z,3.93
2018-07-30T09:10:03.070Z,3.87
2018-07-30T09:12:29.809Z,3.70
2018-07-30T09:14:56.430Z,3.60
2018-07-30T09:17:23.083Z,3.90
2018-07-30T09:19:49.736Z,3.73
2018-07-30T09:22:16.400Z,3.50
2018-07-30T09:24:43.067Z,3.23
2018-07-30T09:27:09.748Z,3.30
2018-07-30T09:29:36.367Z,4.00
2018-07-30T09:32:03.027Z,3.50
2018-07-30T09:34:29.738Z,3.30
2018-07-30T09:36:56.373Z,3.33
2018-07-30T09:39:23.118Z,4.50
2018-07-30T09:41:49.733Z,3.35
2018-07-30T09:44:16.384Z,3.57
2018-07-30T09:46:43.021Z,3.10
2018-07-30T09:49:09.677Z,3.20
2018-07-30T09:51:36.361Z,3.30
2018-07-30T09:54:03.001Z,3.30
2018-07-30T09:56:29.677Z,3.40
2018-07-30T09:58:56.316Z,3.33
2018-07-30T10:01:29.321Z,3.27
2018-07-30T10:03:56.569Z,3.50
2018-07-30T10:06:23.320Z,3.50
2018-07-30T10:08:49.960Z,3.35
2018-07-30T10:11:16.655Z,3.50
2018-07-30T10:13:43.316Z,3.20
2018-07-30T10:16:09.992Z,3.75
2018-07-30T10:18:36.709Z,3.47
2018-07-30T10:21:03.359Z,4.10
2018-07-30T10:23:30.031Z,3.15
2018-07-30T10:25:56.693Z,3.25
2018-07-30T10:28:23.372Z,3.47
2018-07-30T10:30:50.054Z,3.45
2018-07-30T10:33:16.699Z,3.33
2018-07-30T10:35:43.371Z,3.33
2018-07-30T10:38:10.123Z,3.08
2018-07-30T10:40:36.662Z,3.10
2018-07-30T10:43:03.333Z,3.37
2018-07-30T10:45:29.949Z,3.47
2018-07-30T10:47:56.639Z,3.30
2018-07-30T10:50:23.289Z,3.02
2018-07-30T10:52:49.914Z,3.37
2018-07-30T10:55:16.663Z,3.20
2018-07-30T10:57:43.314Z,3.70
2018-07-30T11:00:10.072Z,3.98
2018-07-30T11:02:36.796Z,3.85
2018-07-30T11:05:03.757Z,3.22
2018-07-30T11:07:30.401Z,3.67
2018-07-30T11:09:57.075Z,3.95
2018-07-30T11:12:23.738Z,3.55
2018-07-30T11:14:50.431Z,3.47
2018-07-30T11:17:17.110Z,3.25
2018-07-30T11:19:43.768Z,3.22
2018-07-30T11:22:10.427Z,3.87
2018-07-30T11:24:37.082Z,3.33
2018-07-30T11:27:03.716Z,3.37
2018-07-30T11:29:30.506Z,3.27
2018-07-30T11:31:57.130Z,3.40
2018-07-30T11:34:23.914Z,3.40
2018-07-30T11:36:50.528Z,3.55
2018-07-30T11:39:17.194Z,3.12
2018-07-30T11:41:43.850Z,3.75
2018-07-30T11:44:10.459Z,3.45
2018-07-30T11:46:37.146Z,3.45
2018-07-30T11:49:03.799Z,3.60
2018-07-30T11:51:30.464Z,3.70
2018-07-30T11:53:57.187Z,3.45
2018-07-30T11:56:23.949Z,3.52
2018-07-30T11:58:50.597Z,3.33
2018-07-30T12:01:17.281Z,3.50
2018-07-30T12:03:43.937Z,3.17
2018-07-30T12:06:10.649Z,3.30
2018-07-30T12:08:37.350Z,3.40
2018-07-30T12:11:03.991Z,3.60
2018-07-30T12:13:30.913Z,3.80
2018-07-30T12:15:57.510Z,3.15
2018-07-30T12:18:24.153Z,3.37
2018-07-30T12:20:50.820Z,3.60
2018-07-30T12:23:17.429Z,3.25
2018-07-30T12:25:44.078Z,3.42
2018-07-30T12:28:10.714Z,3.08
2018-07-30T12:30:37.422Z,3.40
2018-07-30T12:33:04.070Z,3.27
2018-07-30T12:35:30.716Z,3.12
2018-07-30T12:37:57.484Z,3.52
2018-07-30T12:40:24.164Z,3.47
2018-07-30T12:42:51.184Z,3.25
2018-07-30T12:45:23.524Z,2.92
2018-07-30T12:47:50.260Z,3.35
2018-07-30T12:50:16.938Z,3.25
2018-07-30T12:52:43.596Z,3.22
2018-07-30T12:55:10.274Z,3.12
2018-07-30T12:57:37.012Z,3.25
2018-07-30T13:00:03.920Z,3.80
2018-07-30T13:02:30.634Z,3.50
2018-07-30T13:04:57.306Z,3.20
2018-07-30T13:07:24.017Z,3.17
2018-07-30T13:09:50.677Z,3.15
2018-07-30T13:12:17.362Z,3.40
2018-07-30T13:14:44.046Z,3.22
2018-07-30T13:17:10.774Z,3.20
2018-07-30T13:19:37.490Z,3.40
2018-07-30T13:22:04.193Z,3.60
2018-07-30T13:24:30.984Z,4.35
2018-07-30T13:26:57.614Z,3.40
2018-07-30T13:29:24.293Z,3.50
2018-07-30T13:31:50.956Z,3.50
2018-07-30T13:34:17.610Z,3.37
2018-07-30T13:36:44.298Z,3.33
2018-07-30T13:39:10.916Z,3.17
2018-07-30T13:41:37.988Z,3.20
2018-07-30T13:44:04.836Z,3.15
2018-07-30T13:46:31.531Z,3.37
2018-07-30T13:48:58.155Z,3.17
2018-07-30T13:51:24.819Z,3.27
2018-07-30T13:53:51.572Z,2.90
2018-07-30T13:56:18.271Z,3.05
2018-07-30T13:58:44.975Z,3.35
2018-07-30T14:01:11.647Z,3.15
2018-07-30T14:03:38.306Z,3.37
2018-07-30T14:06:04.941Z,3.35
2018-07-30T14:08:31.591Z,3.10
2018-07-30T14:10:58.315Z,2.90
2018-07-30T14:13:24.966Z,3.00
2018-07-30T14:15:51.643Z,2.62
2018-07-30T14:18:20.221Z,3.20
2018-07-30T14:20:46.926Z,2.95
2018-07-30T14:23:13.610Z,3.08
2018-07-30T14:25:40.296Z,3.40
2018-07-30T14:28:07.046Z,3.15
2018-07-30T14:30:33.708Z,3.08
2018-07-30T14:33:00.341Z,3.20
2018-07-30T14:35:26.970Z,3.27
2018-07-30T14:37:53.638Z,3.12
2018-07-30T14:40:20.315Z,2.90
2018-07-30T14:42:46.928Z,3.30
2018-07-30T14:45:13.625Z,3.30
2018-07-30T14:47:40.268Z,3.10
2018-07-30T14:50:07.426Z,3.25
2018-07-30T14:52:34.095Z,3.20
2018-07-30T14:55:00.777Z,3.00
2018-07-30T14:57:27.443Z,3.02
2018-07-30T14:59:54.613Z,2.90
2018-07-30T15:02:21.305Z,2.77
2018-07-30T15:04:47.961Z,3.20
2018-07-30T15:07:14.679Z,2.95
2018-07-30T15:09:41.355Z,2.75
2018-07-30T15:12:08.066Z,3.17
2018-07-30T15:14:34.763Z,3.00
2018-07-30T15:17:01.479Z,3.10
2018-07-30T15:19:28.161Z,2.98
2018-07-30T15:21:54.865Z,3.00
2018-07-30T15:24:21.520Z,3.00
2018-07-30T15:26:48.207Z,2.83
2018-07-30T15:29:14.892Z,3.20
2018-07-30T15:31:41.570Z,2.80
2018-07-30T15:34:08.207Z,3.25
2018-07-30T15:36:34.869Z,2.83
2018-07-30T15:39:01.567Z,3.00
2018-07-30T15:41:28.226Z,3.17
2018-07-30T15:43:54.897Z,2.90
2018-07-30T15:46:21.632Z,2.72
2018-07-30T15:48:48.294Z,2.83
2018-07-30T15:51:15.010Z,2.60
2018-07-30T15:53:41.685Z,3.10
2018-07-30T15:56:08.381Z,3.00
2018-07-30T15:58:35.047Z,3.05
2018-07-30T16:01:01.744Z,2.90
2018-07-30T16:03:28.450Z,2.90
2018-07-30T16:05:55.149Z,3.15
2018-07-30T16:08:21.842Z,2.90
2018-07-30T16:10:48.542Z,3.00
2018-07-30T16:13:15.212Z,3.00
2018-07-30T16:15:41.866Z,3.25
2018-07-30T16:18:08.568Z,3.45
2018-07-30T16:20:35.234Z,3.20
2018-07-30T16:23:01.949Z,2.80
2018-07-30T16:25:28.574Z,3.00
2018-07-30T16:27:55.252Z,2.87
2018-07-30T16:30:21.956Z,3.10
2018-07-30T16:32:48.625Z,3.02
2018-07-30T16:35:15.290Z,2.75
2018-07-30T16:37:41.950Z,3.10
2018-07-30T16:40:08.615Z,2.80
2018-07-30T16:42:35.271Z,3.20
2018-07-30T16:45:01.964Z,3.10
2018-07-30T16:47:28.647Z,3.22
2018-07-30T16:49:55.358Z,3.20
2018-07-30T16:52:22.078Z,3.20
2018-07-30T16:54:48.776Z,2.95
2018-07-30T16:57:15.437Z,2.70
2018-07-30T16:59:42.097Z,3.20
2018-07-30T17:02:08.776Z,3.08
2018-07-30T17:04:35.453Z,3.40
2018-07-30T17:07:02.073Z,2.98
2018-07-30T17:09:28.712Z,3.10
2018-07-30T17:11:55.349Z,3.08
2018-07-30T17:14:21.995Z,3.30
2018-07-30T17:16:48.676Z,3.17
2018-07-30T17:19:15.371Z,3.35
2018-07-30T17:21:42.041Z,3.15
2018-07-30T17:24:08.721Z,3.35
2018-07-30T17:26:35.401Z,3.35
2018-07-30T17:29:02.096Z,3.25
2018-07-30T17:31:28.739Z,3.15
2018-07-30T17:33:55.451Z,3.00
2018-07-30T17:36:22.115Z,3.33
2018-07-30T17:38:48.787Z,3.35
2018-07-30T17:41:15.461Z,3.10
2018-07-30T17:43:42.103Z,3.17
2018-07-30T17:46:08.748Z,3.42
2018-07-30T17:48:35.423Z,2.98
2018-07-30T17:51:02.154Z,3.08
2018-07-30T17:53:28.822Z,4.05
2018-07-30T17:55:55.571Z,3.08
2018-07-30T17:58:22.184Z,3.17
2018-07-30T18:00:48.800Z,3.30
2018-07-30T18:03:15.473Z,3.30
2018-07-30T18:05:42.150Z,3.30
2018-07-30T18:08:08.814Z,3.15
2018-07-30T18:10:35.491Z,3.20
2018-07-30T18:13:03.044Z,3.25
2018-07-30T18:15:29.803Z,3.60
2018-07-30T18:17:56.471Z,3.25
2018-07-30T18:20:23.161Z,3.20
2018-07-30T18:22:49.799Z,3.37
2018-07-30T18:25:16.464Z,3.25
2018-07-30T18:27:43.111Z,3.30
2018-07-30T18:30:09.803Z,3.47
2018-07-30T18:32:36.475Z,3.30
2018-07-30T18:35:03.181Z,3.30
2018-07-30T18:37:29.874Z,3.25
2018-07-30T18:39:56.571Z,3.77
2018-07-30T18:42:23.249Z,3.70
2018-07-30T18:44:49.936Z,3.62
2018-07-30T18:47:16.620Z,3.40
2018-07-30T18:49:43.306Z,3.60
2018-07-30T18:52:09.954Z,3.72
2018-07-30T18:54:36.634Z,3.67
2018-07-30T18:57:03.287Z,3.80
2018-07-30T18:59:29.953Z,3.98
2018-07-30T19:01:56.639Z,3.50
2018-07-30T19:04:23.304Z,3.62
2018-07-30T19:06:49.932Z,3.62
2018-07-30T19:09:16.578Z,3.77
2018-07-30T19:11:43.213Z,3.27
2018-07-30T19:14:09.878Z,4.08
2018-07-30T19:16:36.568Z,3.95
2018-07-30T19:19:03.278Z,3.90
2018-07-30T19:21:29.994Z,3.70
2018-07-30T19:23:56.646Z,4.15
2018-07-30T19:26:23.344Z,3.80
2018-07-30T19:28:49.997Z,3.80
2018-07-30T19:31:16.702Z,3.55
2018-07-30T19:33:43.344Z,3.60
2018-07-30T19:36:10.015Z,3.95
2018-07-30T19:38:36.732Z,4.15
2018-07-30T19:41:03.404Z,3.98
2018-07-30T19:43:30.092Z,3.98
2018-07-30T19:45:57.900Z,3.92
2018-07-30T19:48:24.556Z,3.50
2018-07-30T19:50:51.200Z,3.72
2018-07-30T19:53:17.861Z,4.08
2018-07-30T19:55:44.545Z,4.03
2018-07-30T19:58:11.365Z,3.67
2018-07-30T20:00:37.886Z,4.28
2018-07-30T20:03:04.543Z,4.12
2018-07-30T20:05:31.168Z,3.95
2018-07-30T20:07:57.811Z,3.85
2018-07-30T20:10:24.487Z,3.55
2018-07-30T20:12:51.149Z,3.90
2018-07-30T20:15:17.845Z,4.20
2018-07-30T20:17:44.518Z,3.95
2018-07-30T20:20:12.653Z,4.60
2018-07-30T20:22:39.343Z,4.12
2018-07-30T20:25:06.003Z,4.10
2018-07-30T20:27:32.632Z,4.15
2018-07-30T20:29:59.386Z,4.05
2018-07-30T20:32:26.041Z,4.12
2018-07-30T20:34:52.708Z,4.90
2018-07-30T20:37:19.404Z,4.78
2018-07-30T20:39:46.091Z,4.55
2018-07-30T20:42:12.747Z,4.28
2018-07-30T20:44:40.039Z,4.12
2018-07-30T20:47:06.736Z,3.90
2018-07-30T20:49:33.401Z,3.62
2018-07-30T20:52:00.072Z,3.98
2018-07-30T20:54:26.748Z,3.92
2018-07-30T20:56:53.427Z,3.90
2018-07-30T20:59:20.106Z,3.85
2018-07-30T21:01:46.785Z,4.10
2018-07-30T21:04:13.419Z,4.08
2018-07-30T21:06:40.078Z,4.15
2018-07-30T21:09:07.419Z,4.03
2018-07-30T21:11:34.086Z,4.15
2018-07-30T21:14:00.763Z,4.03
2018-07-30T21:16:27.439Z,4.12
2018-07-30T21:18:54.080Z,4.33
2018-07-30T21:21:20.755Z,5.20
2018-07-30T21:23:47.409Z,4.62
2018-07-30T21:26:14.071Z,4.20
2018-07-30T21:28:40.739Z,3.98
2018-07-30T21:31:07.410Z,4.33
2018-07-30T21:33:34.081Z,4.40
2018-07-30T21:36:00.707Z,4.37
2018-07-30T21:38:27.351Z,4.45
2018-07-30T21:40:54.017Z,4.23
2018-07-30T21:43:20.699Z,4.20
2018-07-30T21:45:47.378Z,4.45
2018-07-30T21:48:14.041Z,4.33
2018-07-30T21:50:40.705Z,4.40
2018-07-30T21:53:07.815Z,4.37
2018-07-30T21:55:34.482Z,4.25
2018-07-30T21:58:01.110Z,4.20
2018-07-30T22:00:27.759Z,3.97
2018-07-30T22:02:55.632Z,4.17
2018-07-30T22:05:22.300Z,3.73
2018-07-30T22:07:48.955Z,4.30
2018-07-30T22:10:15.602Z,4.25
2018-07-30T22:12:42.246Z,4.00
2018-07-30T22:15:08.900Z,4.03
2018-07-30T22:17:35.616Z,4.40
2018-07-30T22:20:02.577Z,4.30
2018-07-30T22:22:29.233Z,4.12
2018-07-30T22:24:56.474Z,4.33
2018-07-30T22:27:23.133Z,4.23
2018-07-30T22:29:49.799Z,4.23
2018-07-30T22:32:16.453Z,4.50
2018-07-30T22:34:43.088Z,4.33
2018-07-30T22:37:09.757Z,4.27
2018-07-30T22:39:36.416Z,4.00
2018-07-30T22:42:03.062Z,4.53
2018-07-30T22:44:29.729Z,4.37
2018-07-30T22:46:56.394Z,4.70
2018-07-30T22:49:23.054Z,4.50
2018-07-30T22:51:49.719Z,4.60
2018-07-30T22:54:16.372Z,4.37
2018-07-30T22:56:43.021Z,4.37
2018-07-30T22:59:09.682Z,4.20
2018-07-30T23:01:36.338Z,4.70
2018-07-30T23:04:03.006Z,4.40
2018-07-30T23:06:30.011Z,4.30
2018-07-30T23:08:56.741Z,4.47
2018-07-30T23:11:23.517Z,4.27
2018-07-30T23:13:50.452Z,4.20
2018-07-30T23:16:17.111Z,4.70
2018-07-30T23:18:43.751Z,4.40
2018-07-30T23:21:10.405Z,4.47
2018-07-30T23:23:37.052Z,4.40
2018-07-30T23:26:03.687Z,4.87
2018-07-30T23:28:30.329Z,4.67
2018-07-30T23:30:56.975Z,4.33
2018-07-30T23:33:23.707Z,4.50
2018-07-30T23:35:50.341Z,5.13
2018-07-30T23:38:17.059Z,4.40
2018-07-30T23:40:43.732Z,4.70
2018-07-30T23:43:10.352Z,4.97
2018-07-30T23:45:36.967Z,4.40
2018-07-30T23:48:03.605Z,4.50
2018-07-30T23:50:30.217Z,4.40
2018-07-30T23:52:56.883Z,4.77
2018-07-30T23:55:23.563Z,4.87
2018-07-30T23:57:50.199Z,5.03
